Change the Weather History Date:

Sunday, November 18, 2012

  Actual Average (KBLI) Record (KBLI)
Temperature  
Mean Temperature 47 °F 43 °F  
Max Temperature 50 °F 49 °F 56 °F (1954)
Min Temperature 44 °F 36 °F 23 °F (1994)
Degree Days  
Heating Degree Days 18 22  
Month to date heating degree days 367  
Cooling Degree Days 0 0  
Month to date cooling degree days 0  
Year to date cooling degree days 42  
Moisture  
Dew Point 41 °F    
Average Humidity 79    
Maximum Humidity 93    
Minimum Humidity 66    
Precipitation  
Precipitation 0.03 in 0.20 in 1.85 in (2003)
Month to date precipitation 3.55  
Year to date precipitation 29.36  
Sea Level Pressure  
Sea Level Pressure 29.57 in    
Wind  
Wind Speed 10 mph (South)    
Max Wind Speed 21 mph    
Max Gust Speed 39 mph    
Visibility 10 miles    
Events Rain    
T = Trace of Precipitation, MM = Missing Value Source: NWS Daily Summary

Daily Weather History Graph

Daily Weather History Graph

Search for Another Location

Airport or City:

Trip Planner

Search our weather history database for the weather conditions in past years. The results will help you decide how hot, cold, wet, or windy it might be!

Date:

Astronomy

Nov. 18, 2012 Rise Set
Actual Time 7:25 AM PST 4:27 PM PST
Civil Twilight 6:50 AM PST 5:02 PM PST
Nautical Twilight 6:12 AM PST 5:41 PM PST
Astronomical Twilight 5:34 AM PST 6:18 PM PST
Moon 11:50 AM PST (11/18) 10:01 PM PST (11/18)
Length of Visible Light 10h 11m
Length of Day
9h 01m
Waxing Crescent, 31% of the Moon is Illuminated
Nov 18
Waxing Crescent
Nov 20
First Quarter
Nov 28
Full
Dec 6
Last Quarter
Dec 13
New

Hourly Weather History & Observations

Time (PST) Temp. Windchill Dew Point Humidity Pressure Visibility Wind Dir Wind Speed Gust Speed Precip Events Conditions
12:15 AM 44.6 °F 40.7 °F 41.0 °F 87% 29.63 in 10.0 mi South 6.9 mph - N/A   Mostly Cloudy
12:55 AM 44.6 °F 40.7 °F 41.0 °F 87% 29.64 in 8.0 mi SSE 6.9 mph - N/A Rain Light Rain
1:15 AM 44.6 °F 42.2 °F 41.0 °F 87% 29.63 in 5.0 mi SSE 4.6 mph - N/A Rain Light Rain
1:35 AM 44.6 °F 40.7 °F 41.0 °F 87% 29.63 in 10.0 mi South 6.9 mph - N/A   Mostly Cloudy
1:55 AM 44.6 °F 40.2 °F 41.0 °F 87% 29.63 in 10.0 mi South 8.1 mph - N/A   Mostly Cloudy
2:15 AM 44.6 °F 40.7 °F 41.0 °F 87% 29.64 in 10.0 mi South 6.9 mph - N/A   Mostly Cloudy
2:35 AM 44.6 °F 38.1 °F 39.2 °F 81% 29.64 in 10.0 mi South 13.8 mph 19.6 mph N/A   Overcast
2:55 AM 44.6 °F 38.8 °F 41.0 °F 87% 29.65 in 10.0 mi South 11.5 mph 20.7 mph N/A Rain Light Rain
3:15 AM 44.6 °F 38.8 °F 41.0 °F 87% 29.66 in 10.0 mi South 11.5 mph 20.7 mph N/A Rain Light Rain
3:35 AM 44.6 °F 40.2 °F 39.2 °F 81% 29.65 in 10.0 mi South 8.1 mph - N/A   Overcast
3:55 AM 44.6 °F 39.7 °F 39.2 °F 81% 29.65 in 10.0 mi South 9.2 mph 16.1 mph N/A Rain Light Rain
4:15 AM 46.4 °F 41.5 °F 41.0 °F 81% 29.66 in 10.0 mi South 10.4 mph 18.4 mph N/A   Mostly Cloudy
4:35 AM 46.4 °F 41.1 °F 41.0 °F 81% 29.66 in 10.0 mi South 11.5 mph 20.7 mph N/A   Mostly Cloudy
4:55 AM 46.4 °F 41.5 °F 41.0 °F 81% 29.66 in 10.0 mi SSE 10.4 mph 18.4 mph N/A   Mostly Cloudy
5:15 AM 44.6 °F 40.7 °F 41.0 °F 87% 29.66 in 10.0 mi South 6.9 mph 16.1 mph N/A   Mostly Cloudy
5:35 AM 44.6 °F 39.2 °F 41.0 °F 87% 29.66 in 10.0 mi South 10.4 mph 18.4 mph N/A   Scattered Clouds
5:55 AM 44.6 °F 38.8 °F 41.0 °F 87% 29.66 in 10.0 mi South 11.5 mph 17.3 mph N/A   Scattered Clouds
6:15 AM 44.6 °F 38.8 °F 39.2 °F 81% 29.65 in 10.0 mi South 11.5 mph 17.3 mph N/A   Mostly Cloudy
6:35 AM 44.6 °F 38.8 °F 39.2 °F 81% 29.66 in 10.0 mi South 11.5 mph 20.7 mph N/A   Mostly Cloudy
6:55 AM 46.4 °F 40.1 °F 39.2 °F 76% 29.66 in 10.0 mi South 15.0 mph 21.9 mph N/A   Mostly Cloudy
7:15 AM 46.4 °F 41.5 °F 39.2 °F 76% 29.65 in 10.0 mi South 10.4 mph 20.7 mph N/A   Mostly Cloudy
7:35 AM 46.4 °F 39.5 °F 39.2 °F 76% 29.65 in 10.0 mi South 17.3 mph 26.5 mph N/A   Overcast
7:55 AM 46.4 °F 41.5 °F 41.0 °F 81% 29.65 in 10.0 mi South 10.4 mph 19.6 mph N/A   Mostly Cloudy
8:15 AM 46.4 °F 42.9 °F 39.2 °F 76% 29.65 in 10.0 mi South 6.9 mph 19.6 mph N/A   Mostly Cloudy
8:35 AM 46.4 °F 41.1 °F 39.2 °F 76% 29.64 in 10.0 mi South 11.5 mph 27.6 mph N/A   Mostly Cloudy
8:55 AM 46.4 °F 39.8 °F 39.2 °F 76% 29.64 in 10.0 mi South 16.1 mph 21.9 mph N/A   Mostly Cloudy
9:15 AM 46.4 °F 41.1 °F 39.2 °F 76% 29.64 in 10.0 mi South 11.5 mph 25.3 mph N/A   Mostly Cloudy
9:35 AM 46.4 °F 40.7 °F 41.0 °F 81% 29.64 in 10.0 mi South 12.7 mph 21.9 mph N/A   Overcast
9:55 AM 46.4 °F 40.7 °F 41.0 °F 81% 29.65 in 10.0 mi South 12.7 mph 24.2 mph N/A   Overcast
10:15 AM 46.4 °F 40.4 °F 41.0 °F 81% 29.65 in 10.0 mi South 13.8 mph 23.0 mph N/A   Overcast
10:35 AM 46.4 °F 41.1 °F 41.0 °F 81% 29.65 in 10.0 mi South 11.5 mph 26.5 mph N/A   Overcast
10:55 AM 48.2 °F - 41.0 °F 76% 29.65 in 10.0 mi South 10.4 mph 23.0 mph N/A   Overcast
11:15 AM 48.2 °F - 41.0 °F 76% 29.65 in 10.0 mi South 9.2 mph 24.2 mph N/A   Overcast
11:55 AM 48.2 °F - 41.0 °F 76% 29.64 in 10.0 mi South 8.1 mph - N/A   Overcast
12:15 PM 48.2 °F - 41.0 °F 76% 29.64 in 10.0 mi South 8.1 mph 17.3 mph N/A   Overcast
12:35 PM 48.2 °F - 41.0 °F 76% 29.63 in 10.0 mi SSE 9.2 mph 19.6 mph N/A   Overcast
12:55 PM 48.2 °F - 41.0 °F 76% 29.62 in 10.0 mi South 10.4 mph 25.3 mph N/A   Mostly Cloudy
1:15 PM 48.2 °F - 41.0 °F 76% 29.62 in 10.0 mi South 12.7 mph 24.2 mph N/A   Mostly Cloudy
1:35 PM 48.2 °F - 41.0 °F 76% 29.61 in 10.0 mi South 11.5 mph 19.6 mph N/A   Mostly Cloudy
1:55 PM 48.2 °F - 41.0 °F 76% 29.60 in 10.0 mi South 9.2 mph 18.4 mph N/A   Mostly Cloudy
2:15 PM 48.2 °F - 41.0 °F 76% 29.58 in 10.0 mi SSE 12.7 mph 24.2 mph N/A   Scattered Clouds
2:55 PM 48.2 °F - 39.2 °F 71% 29.55 in 10.0 mi SSE 9.2 mph 21.9 mph N/A   Mostly Cloudy
3:15 PM 48.2 °F - 39.2 °F 71% 29.54 in 10.0 mi SSE 11.5 mph 33.4 mph N/A   Scattered Clouds
3:35 PM 50.0 °F - 39.2 °F 66% 29.53 in 10.0 mi SSE 12.7 mph 29.9 mph N/A   Partly Cloudy
3:55 PM 50.0 °F - 39.2 °F 66% 29.51 in 10.0 mi SSE 12.7 mph 33.4 mph N/A   Clear
4:15 PM 50.0 °F - 39.2 °F 66% 29.51 in 10.0 mi SSE 17.3 mph 32.2 mph N/A   Clear
4:55 PM 50.0 °F - 39.2 °F 66% 29.46 in 10.0 mi SSE 20.7 mph 33.4 mph N/A   Clear
5:15 PM 50.0 °F - 39.2 °F 66% 29.45 in 10.0 mi SE 19.6 mph 35.7 mph N/A   Clear
5:35 PM 48.2 °F - 39.2 °F 71% 29.43 in 10.0 mi SSE 13.8 mph 33.4 mph N/A   Clear
5:55 PM 50.0 °F - 41.0 °F 71% 29.42 in 10.0 mi SSE 12.7 mph 31.1 mph N/A   Clear
6:15 PM 50.0 °F - 41.0 °F 71% 29.41 in 10.0 mi SSE 12.7 mph 39.1 mph N/A   Clear
6:35 PM 48.2 °F - 41.0 °F 76% 29.40 in 8.0 mi SSE 13.8 mph 28.8 mph N/A Rain Light Rain
6:55 PM 46.4 °F 40.7 °F 44.6 °F 93% 29.40 in 5.0 mi SSE 12.7 mph 20.7 mph 0.02 in Rain Light Rain
7:15 PM 46.4 °F 40.1 °F 42.8 °F 87% 29.39 in 10.0 mi SSE 15.0 mph 24.2 mph N/A   Mostly Cloudy
7:35 PM 48.2 °F - 41.0 °F 76% 29.38 in 10.0 mi SSE 18.4 mph 27.6 mph N/A   Partly Cloudy
7:55 PM 48.2 °F - 41.0 °F 76% 29.38 in 10.0 mi SSE 16.1 mph 28.8 mph 0.01 in   Partly Cloudy
8:15 PM 48.2 °F - 41.0 °F 76% 29.40 in 10.0 mi South 17.3 mph 36.8 mph N/A   Scattered Clouds
8:35 PM 48.2 °F - 41.0 °F 76% 29.42 in 10.0 mi South 15.0 mph 23.0 mph N/A   Mostly Cloudy
8:55 PM 48.2 °F - 41.0 °F 76% 29.44 in 10.0 mi South 13.8 mph 29.9 mph N/A   Scattered Clouds
9:15 PM 48.2 °F - 41.0 °F 76% 29.45 in 10.0 mi South 12.7 mph 23.0 mph N/A   Scattered Clouds
9:55 PM 48.2 °F - 42.8 °F 82% 29.46 in 10.0 mi South 10.4 mph 20.7 mph N/A   Partly Cloudy
10:15 PM 48.2 °F - 42.8 °F 82% 29.46 in 10.0 mi South 10.4 mph 17.3 mph N/A   Mostly Cloudy
10:55 PM 50.0 °F - 44.6 °F 82% 29.45 in 10.0 mi South 11.5 mph 27.6 mph N/A   Mostly Cloudy
11:15 PM 50.0 °F - 44.6 °F 82% 29.45 in 10.0 mi South 11.5 mph 21.9 mph N/A   Mostly Cloudy
11:35 PM 50.0 °F - 44.6 °F 82% 29.45 in 10.0 mi South 15.0 mph 28.8 mph N/A   Mostly Cloudy
11:55 PM 50.0 °F - 44.6 °F 82% 29.45 in 10.0 mi SSE 9.2 mph 21.9 mph N/A   Mostly Cloudy